createdAt,value
2022-10-15T00:00:38.397Z,99088.50
2022-10-15T00:03:27.690Z,99082.91
2022-10-15T00:06:20.289Z,99080.19
2022-10-15T00:09:08.191Z,99077.06
2022-10-15T00:11:56.443Z,99080.78
2022-10-15T00:14:44.347Z,99078.19
2022-10-15T00:17:32.266Z,99078.28
2022-10-15T00:20:21.810Z,99069.13
2022-10-15T00:23:09.690Z,99068.84
2022-10-15T00:26:05.868Z,99073.25
2022-10-15T00:28:56.179Z,99080.03
2022-10-15T00:31:44.153Z,99080.47
2022-10-15T00:34:33.900Z,99071.53
2022-10-15T00:37:23.201Z,99071.72
2022-10-15T00:40:14.944Z,99078.81
2022-10-15T00:43:02.895Z,99077.53
2022-10-15T00:45:50.960Z,99077.00
2022-10-15T00:48:38.916Z,99075.19
2022-10-15T00:51:32.382Z,99071.97
2022-10-15T00:54:22.419Z,99067.53
2022-10-15T00:57:11.876Z,99033.31
2022-10-15T01:00:03.720Z,99071.34
2022-10-15T01:02:52.415Z,99062.16
2022-10-15T01:05:42.041Z,99059.44
2022-10-15T01:08:32.487Z,99057.78
2022-10-15T01:11:41.141Z,99050.91
2022-10-15T01:14:40.510Z,99051.00
2022-10-15T01:17:34.545Z,99038.56
2022-10-15T01:20:53.761Z,99050.59
2022-10-15T01:24:22.067Z,99050.50
2022-10-15T01:27:26.110Z,99058.63
2022-10-15T01:30:22.580Z,99044.34
2022-10-15T01:33:27.445Z,99045.94
2022-10-15T01:36:19.727Z,99034.56
2022-10-15T01:39:13.844Z,99036.56
2022-10-15T01:42:05.030Z,99042.56
2022-10-15T01:44:56.918Z,99039.59
2022-10-15T01:48:13.607Z,99033.63
2022-10-15T01:51:04.981Z,99005.22
2022-10-15T01:53:54.651Z,99041.09
2022-10-15T01:56:49.464Z,99039.50
2022-10-15T01:59:40.624Z,99032.78
2022-10-15T02:02:28.519Z,99046.09
2022-10-15T02:05:22.690Z,99016.22
2022-10-15T02:08:26.719Z,99040.13
2022-10-15T02:11:17.437Z,99039.44
2022-10-15T02:14:12.691Z,99025.22
2022-10-15T02:17:07.607Z,99033.72
2022-10-15T02:20:00.935Z,99025.22
2022-10-15T02:22:58.372Z,99036.25
2022-10-15T02:25:48.406Z,99037.09
2022-10-15T02:28:40.013Z,99028.97
2022-10-15T02:31:31.831Z,99033.09
2022-10-15T02:34:23.581Z,99033.44
2022-10-15T02:37:11.533Z,99034.31
2022-10-15T02:40:05.560Z,99038.28
2022-10-15T02:42:53.564Z,99043.84
2022-10-15T02:45:41.549Z,99042.28
2022-10-15T02:48:29.620Z,99037.78
2022-10-15T02:51:17.526Z,99031.56
2022-10-15T02:54:07.036Z,99032.06
2022-10-15T02:56:56.313Z,99024.00
2022-10-15T02:59:44.338Z,99029.97
2022-10-15T03:02:32.254Z,99038.91
2022-10-15T03:05:20.439Z,99043.59
2022-10-15T03:08:08.401Z,99048.69
2022-10-15T03:10:56.661Z,99051.81
2022-10-15T03:13:46.845Z,99049.72
2022-10-15T03:16:34.744Z,99040.72
2022-10-15T03:19:22.678Z,99045.16
2022-10-15T03:22:10.714Z,99039.16
2022-10-15T03:25:09.475Z,99051.22
2022-10-15T03:27:57.612Z,99043.59
2022-10-15T03:30:55.269Z,99055.63
2022-10-15T03:33:43.592Z,99051.47
2022-10-15T03:36:31.885Z,99052.25
2022-10-15T03:39:20.641Z,99047.72
2022-10-15T03:42:10.913Z,99044.38
2022-10-15T03:45:06.820Z,99043.59
2022-10-15T03:47:56.442Z,99048.19
2022-10-15T03:50:47.871Z,99052.34
2022-10-15T03:53:36.709Z,99055.88
2022-10-15T03:56:24.729Z,99032.66
2022-10-15T03:59:17.993Z,99057.97
2022-10-15T04:02:16.472Z,99060.56
2022-10-15T04:05:06.753Z,99064.53
2022-10-15T04:07:55.605Z,99067.81
2022-10-15T04:10:44.880Z,99062.63
2022-10-15T04:13:33.009Z,99069.41
2022-10-15T04:16:21.133Z,99069.22
2022-10-15T04:19:11.135Z,99074.69
2022-10-15T04:22:01.815Z,99080.91
2022-10-15T04:24:59.234Z,99080.50
2022-10-15T04:27:49.093Z,99085.69
2022-10-15T04:30:39.264Z,99087.91
2022-10-15T04:33:30.688Z,99077.78
2022-10-15T04:36:20.443Z,99087.53
2022-10-15T04:39:14.811Z,99097.75
2022-10-15T04:42:04.772Z,99101.09
2022-10-15T04:44:54.725Z,99103.97
2022-10-15T04:47:42.679Z,99100.53
2022-10-15T04:50:34.091Z,99107.72
2022-10-15T04:53:48.279Z,99104.66
2022-10-15T04:56:37.598Z,99103.63
2022-10-15T04:59:25.598Z,99104.09
2022-10-15T05:02:49.233Z,99116.81
2022-10-15T05:05:52.091Z,99111.41
2022-10-15T05:08:41.970Z,99114.72
2022-10-15T05:11:40.360Z,99115.41
2022-10-15T05:14:33.191Z,99123.72
2022-10-15T05:17:32.510Z,99126.84
2022-10-15T05:20:21.249Z,99130.94
2022-10-15T05:23:09.428Z,99128.94
2022-10-15T05:26:00.492Z,99126.97
2022-10-15T05:28:50.323Z,99130.75
2022-10-15T05:31:46.392Z,99129.38
2022-10-15T05:34:38.830Z,99140.22
2022-10-15T05:37:32.899Z,99138.97
2022-10-15T05:40:22.087Z,99136.06
2022-10-15T05:43:23.030Z,99140.56
2022-10-15T05:46:12.354Z,99147.13
2022-10-15T05:49:00.615Z,99160.81
2022-10-15T05:51:50.742Z,99146.59
2022-10-15T05:54:54.061Z,99156.84
2022-10-15T05:57:42.013Z,99161.88
2022-10-15T06:00:30.159Z,99170.44
2022-10-15T06:03:19.408Z,99166.81
2022-10-15T06:05:47.017Z,99177.81
2022-10-15T06:08:14.789Z,99187.78
2022-10-15T06:10:42.660Z,99191.34
2022-10-15T06:13:10.705Z,99188.31
2022-10-15T06:15:40.572Z,99194.97
2022-10-15T06:18:10.790Z,99197.41
2022-10-15T06:20:40.379Z,99206.50
2022-10-15T06:23:08.034Z,99211.09
2022-10-15T06:25:36.783Z,99212.94
2022-10-15T06:28:06.173Z,99219.66
2022-10-15T06:30:42.671Z,99221.59
2022-10-15T06:35:41.207Z,99227.72
2022-10-15T06:38:08.838Z,99227.38
2022-10-15T06:40:36.517Z,99231.13
2022-10-15T06:43:05.530Z,99229.56
2022-10-15T06:45:33.225Z,99231.88
2022-10-15T06:48:00.846Z,99240.06
2022-10-15T06:50:28.455Z,99243.00
2022-10-15T06:55:30.276Z,99249.78
2022-10-15T06:57:58.195Z,99245.06
2022-10-15T07:00:27.832Z,99254.03
2022-10-15T07:02:55.598Z,99258.25
2022-10-15T07:05:23.441Z,99256.09
2022-10-15T07:07:54.485Z,99260.69
2022-10-15T07:10:23.655Z,99265.03
2022-10-15T07:12:51.262Z,99259.16
2022-10-15T07:15:19.551Z,99261.72
2022-10-15T07:17:49.069Z,99273.16
2022-10-15T07:20:21.638Z,99261.13
2022-10-15T07:22:52.160Z,99271.44
2022-10-15T07:25:20.395Z,99269.38
2022-10-15T07:27:49.297Z,99273.72
2022-10-15T07:30:16.908Z,99275.09
2022-10-15T07:32:46.477Z,99281.69
2022-10-15T07:35:14.729Z,99268.88
2022-10-15T07:37:42.511Z,99276.13
2022-10-15T07:40:11.077Z,99283.53
2022-10-15T07:42:40.850Z,99287.84
2022-10-15T07:45:11.407Z,99287.56
2022-10-15T07:47:40.942Z,99283.00
2022-10-15T07:50:09.148Z,99281.19
2022-10-15T07:52:36.715Z,99280.66
2022-10-15T07:55:04.868Z,99283.16
2022-10-15T07:57:32.516Z,99288.19
2022-10-15T08:00:00.220Z,99289.75
2022-10-15T08:02:29.128Z,99291.31
2022-10-15T08:04:56.743Z,99297.56
2022-10-15T08:07:24.374Z,99302.44
2022-10-15T08:09:52.083Z,99301.28
2022-10-15T08:12:19.749Z,99293.22
2022-10-15T08:14:47.824Z,99296.69
2022-10-15T08:17:15.484Z,99311.69
2022-10-15T08:19:44.613Z,99306.81
2022-10-15T08:22:12.681Z,99314.13
2022-10-15T08:24:40.369Z,99313.69
2022-10-15T08:27:07.992Z,99319.31
2022-10-15T08:29:35.665Z,99306.16
2022-10-15T08:32:03.296Z,99306.81
2022-10-15T08:34:31.554Z,99305.44
2022-10-15T08:37:00.581Z,99316.13
2022-10-15T08:39:28.278Z,99320.63
2022-10-15T08:41:57.973Z,99332.00
2022-10-15T08:44:28.379Z,99330.28
2022-10-15T08:47:00.705Z,99329.56
2022-10-15T08:49:42.130Z,99330.09
2022-10-15T08:52:21.079Z,99331.47
2022-10-15T08:54:49.005Z,99329.31
2022-10-15T08:57:23.840Z,99321.25
2022-10-15T09:00:02.456Z,99322.97
2022-10-15T09:02:34.995Z,99266.00
2022-10-15T09:05:20.423Z,99330.63
2022-10-15T09:07:57.752Z,99328.97
2022-10-15T09:10:37.205Z,99341.53
2022-10-15T09:13:13.852Z,99331.81
2022-10-15T09:15:51.414Z,99335.97
2022-10-15T09:18:24.228Z,99327.75
2022-10-15T09:20:54.005Z,99334.88
2022-10-15T09:23:27.084Z,99342.50
2022-10-15T09:26:02.367Z,99337.56
2022-10-15T09:28:38.728Z,99339.03
2022-10-15T09:31:10.011Z,99331.03
2022-10-15T09:33:41.713Z,99338.69
2022-10-15T09:36:20.927Z,99343.03
2022-10-15T09:39:00.735Z,99332.00
2022-10-15T09:41:39.440Z,99321.16
2022-10-15T09:44:13.738Z,99344.66
2022-10-15T09:46:50.229Z,99336.19
2022-10-15T09:49:21.399Z,99293.66
2022-10-15T09:52:02.262Z,99347.63
2022-10-15T09:54:40.328Z,99337.06
2022-10-15T09:57:11.007Z,99349.16
2022-10-15T09:59:38.589Z,99349.78
2022-10-15T10:02:19.497Z,99359.03
2022-10-15T10:04:47.270Z,99353.69
2022-10-15T10:07:33.475Z,99357.06
2022-10-15T10:10:05.437Z,99355.19
2022-10-15T10:12:36.241Z,99361.38
2022-10-15T10:15:06.767Z,99360.59
2022-10-15T10:17:34.451Z,99357.81
2022-10-15T10:20:20.940Z,99362.69
2022-10-15T10:22:51.623Z,99356.94
2022-10-15T10:25:33.493Z,99360.06
2022-10-15T10:28:07.903Z,99364.22
2022-10-15T10:30:38.094Z,99365.88
2022-10-15T10:33:06.673Z,99360.06
2022-10-15T10:35:44.515Z,99363.19
2022-10-15T10:38:20.713Z,99363.38
2022-10-15T10:40:55.213Z,99362.97
2022-10-15T10:43:26.672Z,99367.56
2022-10-15T10:45:56.362Z,99367.72
2022-10-15T10:48:27.769Z,99365.75
2022-10-15T10:51:09.344Z,99355.63
2022-10-15T10:53:45.550Z,99356.41
2022-10-15T10:56:15.497Z,99347.38
2022-10-15T10:58:43.495Z,99357.19
2022-10-15T11:01:13.878Z,99364.09
2022-10-15T11:03:46.342Z,99354.09
2022-10-15T11:06:32.549Z,99361.44
2022-10-15T11:09:15.817Z,99369.59
2022-10-15T11:11:56.497Z,99365.25
2022-10-15T11:14:30.938Z,99357.84
2022-10-15T11:17:07.802Z,99356.81
2022-10-15T11:22:46.877Z,99349.84
2022-10-15T11:25:23.518Z,99352.75
2022-10-15T11:28:08.892Z,99354.19
2022-10-15T11:30:49.119Z,99353.59
2022-10-15T11:33:42.940Z,99347.16
2022-10-15T11:36:30.350Z,99346.94
2022-10-15T11:39:11.986Z,99331.81
2022-10-15T11:41:48.867Z,99347.59
2022-10-15T11:44:36.847Z,99328.38
2022-10-15T11:47:25.211Z,99332.41
2022-10-15T11:50:06.630Z,99331.59
2022-10-15T11:52:46.513Z,99336.56
2022-10-15T11:55:20.017Z,99333.66
2022-10-15T11:57:52.079Z,99320.38
2022-10-15T12:00:32.669Z,99319.31
2022-10-15T12:03:06.750Z,99326.84
2022-10-15T12:05:38.497Z,99313.16
2022-10-15T12:08:08.092Z,99323.50
2022-10-15T12:10:49.488Z,99319.47
2022-10-15T12:13:23.557Z,99322.16
2022-10-15T12:16:05.299Z,99317.91
2022-10-15T12:18:39.264Z,99324.31
2022-10-15T12:21:31.645Z,99310.44
2022-10-15T12:23:59.401Z,99319.22
2022-10-15T12:26:32.064Z,99326.59
2022-10-15T12:29:03.345Z,99316.66
2022-10-15T12:31:55.595Z,99297.13
2022-10-15T12:34:38.758Z,99310.84
2022-10-15T12:37:20.080Z,99318.28
2022-10-15T12:39:52.630Z,99319.13
2022-10-15T12:42:27.236Z,99319.00
2022-10-15T12:44:57.161Z,99319.03
2022-10-15T12:47:49.791Z,99315.19
2022-10-15T12:50:20.285Z,99294.81
2022-10-15T12:52:54.613Z,99321.94
2022-10-15T12:55:26.411Z,99310.94
2022-10-15T12:57:59.638Z,99314.88
2022-10-15T13:00:38.823Z,99307.94
2022-10-15T13:03:17.057Z,99306.72
2022-10-15T13:05:46.169Z,99304.41
2022-10-15T13:08:22.934Z,99314.06
2022-10-15T13:10:54.652Z,99301.75
2022-10-15T13:13:26.984Z,99298.94
2022-10-15T13:15:58.837Z,99291.22
2022-10-15T13:18:30.774Z,99279.75
2022-10-15T13:20:58.739Z,99291.66
2022-10-15T13:23:30.907Z,99285.41
2022-10-15T13:26:13.212Z,99291.94
2022-10-15T13:28:42.496Z,99282.94
2022-10-15T13:31:16.797Z,99285.72
2022-10-15T13:33:48.908Z,99286.09
2022-10-15T13:36:21.621Z,99286.09
2022-10-15T13:38:54.523Z,99290.97
2022-10-15T13:41:28.218Z,99288.41
2022-10-15T13:43:58.909Z,99295.16
2022-10-15T13:46:27.583Z,99276.78
2022-10-15T13:49:01.748Z,99291.69
2022-10-15T13:51:34.396Z,99253.09
2022-10-15T13:54:09.364Z,99271.34
2022-10-15T13:56:37.433Z,99297.13
2022-10-15T13:59:05.456Z,99284.97
2022-10-15T14:01:34.852Z,99301.47
2022-10-15T14:04:04.807Z,99303.91
2022-10-15T14:06:34.683Z,99297.59
2022-10-15T14:09:12.078Z,99285.72
2022-10-15T14:11:40.373Z,99289.88
2022-10-15T14:14:29.808Z,99309.13
2022-10-15T14:16:59.898Z,99314.38
2022-10-15T14:19:31.139Z,99308.59
2022-10-15T14:22:00.315Z,99308.78
2022-10-15T14:24:33.305Z,99302.38
2022-10-15T14:27:06.550Z,99316.06
2022-10-15T14:29:40.786Z,99289.69
2022-10-15T14:32:23.687Z,99320.78
2022-10-15T14:34:54.095Z,99325.69
2022-10-15T14:37:43.440Z,99325.31
2022-10-15T14:40:19.183Z,99327.88
2022-10-15T14:42:48.435Z,99305.59
2022-10-15T14:45:24.106Z,99305.91
2022-10-15T14:47:54.834Z,99320.72
2022-10-15T14:50:26.532Z,99318.41
2022-10-15T14:52:55.453Z,99327.88
2022-10-15T14:55:33.795Z,99327.75
2022-10-15T14:58:07.779Z,99331.72
2022-10-15T15:00:41.435Z,99327.84
2022-10-15T15:03:16.608Z,99336.22
2022-10-15T15:05:48.041Z,99334.47
2022-10-15T15:08:16.391Z,99323.22
2022-10-15T15:10:44.963Z,99325.41
2022-10-15T15:13:16.506Z,99334.69
2022-10-15T15:15:44.247Z,99333.22
2022-10-15T15:18:12.495Z,99296.66
2022-10-15T15:20:43.239Z,99339.72
2022-10-15T15:23:15.595Z,99332.44
2022-10-15T15:25:43.235Z,99341.34
2022-10-15T15:28:14.314Z,99340.91
2022-10-15T15:30:43.627Z,99341.38
2022-10-15T15:33:12.894Z,99319.94
2022-10-15T15:35:50.551Z,99331.00
2022-10-15T15:38:20.112Z,99340.06
2022-10-15T15:40:48.208Z,99323.91
2022-10-15T15:43:18.216Z,99314.81
2022-10-15T15:45:47.625Z,99311.25
2022-10-15T15:48:15.277Z,99326.75
2022-10-15T15:50:42.873Z,99321.56
2022-10-15T15:53:13.179Z,99330.09
2022-10-15T15:55:42.093Z,99320.00
2022-10-15T15:58:09.645Z,99327.66
2022-10-15T16:00:37.273Z,99320.28
2022-10-15T16:03:04.950Z,99320.03
2022-10-15T16:05:32.653Z,99319.00
2022-10-15T16:08:00.278Z,99331.41
2022-10-15T16:10:27.888Z,99325.13
2022-10-15T16:12:57.022Z,99324.81
2022-10-15T16:15:24.661Z,99331.47
2022-10-15T16:17:52.291Z,99322.72
2022-10-15T16:20:20.637Z,99353.38
2022-10-15T16:22:50.567Z,99347.44
2022-10-15T16:25:18.251Z,99355.66
2022-10-15T16:27:48.616Z,99355.00
2022-10-15T16:30:17.716Z,99356.19
2022-10-15T16:32:45.361Z,99364.53
2022-10-15T16:35:12.974Z,99359.25
2022-10-15T16:37:40.656Z,99375.09
2022-10-15T16:40:09.596Z,99366.91
2022-10-15T16:42:37.193Z,99373.66
2022-10-15T16:45:05.290Z,99372.66
2022-10-15T16:47:34.352Z,99365.34
2022-10-15T16:50:02.551Z,99377.81
2022-10-15T16:52:30.264Z,99370.13
2022-10-15T16:54:57.796Z,99366.22
2022-10-15T16:57:25.410Z,99374.97
2022-10-15T16:59:53.069Z,99385.22
2022-10-15T17:02:20.741Z,99386.69
2022-10-15T17:04:49.883Z,99386.97
2022-10-15T17:07:17.702Z,99395.13
2022-10-15T17:09:47.746Z,99402.69
2022-10-15T17:12:16.081Z,99399.72
2022-10-15T17:14:51.669Z,99402.13
2022-10-15T17:17:19.362Z,99404.69
2022-10-15T17:19:47.073Z,99408.63
2022-10-15T17:22:16.041Z,99418.09
2022-10-15T17:24:43.789Z,99428.09
2022-10-15T17:27:11.379Z,99428.59
2022-10-15T17:29:38.947Z,99422.78
2022-10-15T17:32:06.633Z,99426.63
2022-10-15T17:34:34.252Z,99427.56
2022-10-15T17:37:02.026Z,99436.75
2022-10-15T17:39:30.926Z,99433.19
2022-10-15T17:41:58.563Z,99433.88
2022-10-15T17:44:26.184Z,99427.00
2022-10-15T17:46:53.977Z,99431.00
2022-10-15T17:49:28.759Z,99436.97
2022-10-15T17:51:56.394Z,99445.94
2022-10-15T17:54:23.962Z,99444.16
2022-10-15T17:56:52.879Z,99436.53
2022-10-15T17:59:20.470Z,99439.38
2022-10-15T18:02:03.480Z,99446.69
2022-10-15T18:04:34.704Z,99440.47
2022-10-15T18:07:02.283Z,99448.13
2022-10-15T18:09:29.904Z,99448.13
2022-10-15T18:12:01.630Z,99453.06
2022-10-15T18:14:31.320Z,99458.81
2022-10-15T18:16:59.332Z,99433.41
2022-10-15T18:19:28.024Z,99445.91
2022-10-15T18:21:56.424Z,99442.34
2022-10-15T18:24:24.622Z,99456.47
2022-10-15T18:26:52.833Z,99441.75
2022-10-15T18:29:24.915Z,99464.38
2022-10-15T18:31:57.382Z,99463.97
2022-10-15T18:34:28.091Z,99463.78
2022-10-15T18:36:55.651Z,99462.06
2022-10-15T18:39:24.679Z,99459.63
2022-10-15T18:41:52.277Z,99467.19
2022-10-15T18:44:21.358Z,99471.44
2022-10-15T18:46:51.224Z,99478.38
2022-10-15T18:49:20.692Z,99474.03
2022-10-15T18:51:51.464Z,99459.72
2022-10-15T18:54:19.514Z,99482.38
2022-10-15T18:56:47.261Z,99489.50
2022-10-15T18:59:18.848Z,99489.41
2022-10-15T19:01:46.559Z,99479.31
2022-10-15T19:04:17.637Z,99482.72
2022-10-15T19:06:47.574Z,99464.22
2022-10-15T19:09:17.562Z,99483.06
2022-10-15T19:11:49.868Z,99474.13
2022-10-15T19:14:17.742Z,99476.66
2022-10-15T19:16:46.610Z,99488.81
2022-10-15T19:19:16.855Z,99495.22
2022-10-15T19:21:45.296Z,99490.03
2022-10-15T19:24:12.933Z,99484.38
2022-10-15T19:26:40.641Z,99482.72
2022-10-15T19:29:08.580Z,99493.69
2022-10-15T19:31:37.516Z,99487.16
2022-10-15T19:34:06.157Z,99491.59
2022-10-15T19:36:37.156Z,99494.47
2022-10-15T19:39:06.739Z,99496.34
2022-10-15T19:41:36.905Z,99501.31
2022-10-15T19:44:05.223Z,99490.63
2022-10-15T19:46:32.835Z,99494.03
2022-10-15T19:49:00.381Z,99488.81
2022-10-15T19:51:28.195Z,99494.34
2022-10-15T19:53:59.789Z,99493.66
2022-10-15T19:56:31.340Z,99497.13
2022-10-15T19:59:00.770Z,99498.34
2022-10-15T20:01:30.276Z,99515.47
2022-10-15T20:04:16.619Z,99508.28
2022-10-15T20:07:04.502Z,99529.81
2022-10-15T20:09:53.685Z,99535.31
2022-10-15T20:12:41.800Z,99536.06
2022-10-15T20:15:29.655Z,99525.94
2022-10-15T20:18:18.042Z,99530.78
2022-10-15T20:21:08.246Z,99530.78
2022-10-15T20:23:56.583Z,99526.09
2022-10-15T20:26:45.806Z,99538.19
2022-10-15T20:29:33.950Z,99532.34
2022-10-15T20:32:34.192Z,99532.78
2022-10-15T20:35:23.288Z,99540.69
2022-10-15T20:38:12.494Z,99525.31
2022-10-15T20:41:00.516Z,99567.34
2022-10-15T20:43:53.885Z,99557.06
2022-10-15T20:46:47.339Z,99562.25
2022-10-15T20:49:40.500Z,99550.09
2022-10-15T20:52:28.904Z,99535.78
2022-10-15T20:55:17.506Z,99554.91
2022-10-15T20:58:05.476Z,99558.47
2022-10-15T21:00:54.876Z,99556.56
2022-10-15T21:03:42.770Z,99561.84
2022-10-15T21:06:30.725Z,99575.78
2022-10-15T21:09:18.693Z,99579.25
2022-10-15T21:12:08.492Z,99576.50
2022-10-15T21:14:56.365Z,99573.66
2022-10-15T21:17:45.590Z,99574.59
2022-10-15T21:20:33.500Z,99565.03
2022-10-15T21:23:21.485Z,99564.31
2022-10-15T21:26:11.251Z,99559.41
2022-10-15T21:29:00.981Z,99560.91
2022-10-15T21:31:49.390Z,99561.75
2022-10-15T21:37:34.422Z,99564.38
2022-10-15T21:40:22.324Z,99565.44
2022-10-15T21:43:10.186Z,99571.44
2022-10-15T21:46:05.147Z,99582.97
2022-10-15T21:48:53.661Z,99580.41
2022-10-15T21:51:42.878Z,99596.56
2022-10-15T21:54:30.807Z,99591.50
2022-10-15T21:57:18.685Z,99590.56
2022-10-15T22:00:12.420Z,99595.59
2022-10-15T22:03:03.328Z,99598.06
2022-10-15T22:05:51.238Z,99601.75
2022-10-15T22:08:40.585Z,99526.09
2022-10-15T22:11:30.045Z,99602.28
2022-10-15T22:14:17.916Z,99609.50
2022-10-15T22:17:05.843Z,99611.94
2022-10-15T22:19:53.703Z,99618.06
2022-10-15T22:22:43.878Z,99622.69
2022-10-15T22:25:33.092Z,99613.22
2022-10-15T22:28:20.995Z,99625.03
2022-10-15T22:31:11.450Z,99626.38
2022-10-15T22:33:59.825Z,99618.75
2022-10-15T22:36:48.494Z,99617.81
2022-10-15T22:39:36.374Z,99625.78
2022-10-15T22:42:25.959Z,99624.72
2022-10-15T22:45:14.064Z,99626.28
2022-10-15T22:48:01.925Z,99620.75
2022-10-15T22:50:56.469Z,99615.69
2022-10-15T22:53:44.562Z,99619.03
2022-10-15T22:56:32.739Z,99608.50
2022-10-15T22:59:22.067Z,99618.69
2022-10-15T23:02:10.064Z,99609.94
2022-10-15T23:04:57.916Z,99610.88
2022-10-15T23:07:45.765Z,99616.41
2022-10-15T23:10:33.688Z,99577.16
2022-10-15T23:13:21.544Z,99607.38
2022-10-15T23:16:14.218Z,99614.16
2022-10-15T23:19:04.053Z,99615.41
2022-10-15T23:21:55.343Z,99611.03
2022-10-15T23:24:43.219Z,99620.91
2022-10-15T23:27:31.073Z,99617.34
2022-10-15T23:30:24.681Z,99627.00
2022-10-15T23:33:14.377Z,99626.94
2022-10-15T23:36:04.814Z,99628.44
2022-10-15T23:38:55.193Z,99631.94
2022-10-15T23:41:43.149Z,99632.31
2022-10-15T23:44:31.087Z,99631.50
2022-10-15T23:47:18.971Z,99630.66
2022-10-15T23:50:08.943Z,99634.63
2022-10-15T23:52:56.798Z,99642.59
2022-10-15T23:55:45.081Z,99636.28
2022-10-15T23:58:33.017Z,99644.59
